UCA4182 KLIT-KORD
Flight info
| Callsign | UCA4182 |
|---|---|
| Flight time | 1h 33m |
| Altitude | 35000 |
| Route | LIT J180 FTZ TRTLL6 |
| Aircraft | E145/M-SABDFGRW/S |
Departure
| Time | 2026-04-20 23:41 |
|---|---|
| Airport | Bill & Hillary Clinton National Airport/Adams Field (KLIT) |
Arrival
| Time | 2026-04-21 01:14 |
|---|---|
| Airport | Chicago O'Hare International Airport (KORD) |
| Time | Latitude | Longitude | Altitude | Speed | Heading |
|---|---|---|---|---|---|
| 2026-04-20 23:13 | 34.73078 | -92.21896 | 262 ft | 0 kts | 264° |
| 2026-04-20 23:31 | 34.73078 | -92.21894 | 261 ft | 1 kts | 264° |
| 2026-04-20 23:31 | 34.73079 | -92.21877 | 261 ft | 2 kts | 264° |
| 2026-04-20 23:32 | 34.73081 | -92.21858 | 260 ft | 2 kts | 264° |
| 2026-04-20 23:32 | 34.73082 | -92.21840 | 260 ft | 2 kts | 279° |
| 2026-04-20 23:32 | 34.73076 | -92.21822 | 261 ft | 2 kts | 310° |
| 2026-04-20 23:32 | 34.73065 | -92.21811 | 261 ft | 2 kts | 339° |
| 2026-04-20 23:33 | 34.73050 | -92.21808 | 261 ft | 2 kts | 8° |
| 2026-04-20 23:33 | 34.73036 | -92.21813 | 262 ft | 1 kts | 34° |
| 2026-04-20 23:33 | 34.73025 | -92.21824 | 262 ft | 2 kts | 37° |
| 2026-04-20 23:33 | 34.73013 | -92.21835 | 262 ft | 2 kts | 36° |
| 2026-04-20 23:34 | 34.73001 | -92.21845 | 262 ft | 2 kts | 37° |
| 2026-04-20 23:34 | 34.72989 | -92.21856 | 262 ft | 1 kts | 37° |
| 2026-04-20 23:34 | 34.72985 | -92.21859 | 262 ft | 0 kts | 36° |
| 2026-04-20 23:34 | 34.72986 | -92.21859 | 262 ft | 0 kts | 36° |
| 2026-04-20 23:37 | 34.72993 | -92.21852 | 262 ft | 2 kts | 36° |
| 2026-04-20 23:37 | 34.73019 | -92.21829 | 262 ft | 6 kts | 36° |
| 2026-04-20 23:37 | 34.73063 | -92.21793 | 262 ft | 9 kts | 30° |
| 2026-04-20 23:37 | 34.73133 | -92.21789 | 262 ft | 11 kts | 334° |
| 2026-04-20 23:38 | 34.73180 | -92.21880 | 262 ft | 14 kts | 291° |
| 2026-04-20 23:38 | 34.73220 | -92.22003 | 262 ft | 17 kts | 291° |
| 2026-04-20 23:38 | 34.73262 | -92.22137 | 261 ft | 18 kts | 294° |
| 2026-04-20 23:38 | 34.73328 | -92.22224 | 261 ft | 14 kts | 16° |
| 2026-04-20 23:39 | 34.73406 | -92.22137 | 261 ft | 16 kts | 47° |
| 2026-04-20 23:39 | 34.73484 | -92.22035 | 261 ft | 17 kts | 46° |
| 2026-04-20 23:39 | 34.73569 | -92.21928 | 261 ft | 18 kts | 47° |
| 2026-04-20 23:39 | 34.73650 | -92.21824 | 260 ft | 13 kts | 46° |
| 2026-04-20 23:40 | 34.73708 | -92.21756 | 260 ft | 11 kts | 32° |
| 2026-04-20 23:40 | 34.73778 | -92.21780 | 260 ft | 12 kts | 315° |
| 2026-04-20 23:40 | 34.73779 | -92.21855 | 260 ft | 6 kts | 223° |
| 2026-04-20 23:40 | 34.73731 | -92.21915 | 260 ft | 17 kts | 227° |
| 2026-04-20 23:41 | 34.73450 | -92.22274 | 261 ft | 101 kts | 226° |
| 2026-04-20 23:41 | 34.72802 | -92.23103 | 332 ft | 158 kts | 225° |
| 2026-04-20 23:41 | 34.71997 | -92.24100 | 918 ft | 174 kts | 224° |
| 2026-04-20 23:41 | 34.71218 | -92.25215 | 1813 ft | 183 kts | 239° |
| 2026-04-20 23:42 | 34.70937 | -92.26728 | 2619 ft | 192 kts | 260° |
| 2026-04-20 23:42 | 34.70778 | -92.28339 | 3465 ft | 193 kts | 260° |
| 2026-04-20 23:42 | 34.70605 | -92.29960 | 4334 ft | 203 kts | 259° |
| 2026-04-20 23:42 | 34.70436 | -92.31669 | 5304 ft | 211 kts | 266° |
| 2026-04-20 23:43 | 34.70864 | -92.33385 | 6180 ft | 232 kts | 304° |
| 2026-04-20 23:43 | 34.72192 | -92.34594 | 7120 ft | 253 kts | 340° |
| 2026-04-20 23:43 | 34.73961 | -92.34817 | 8176 ft | 265 kts | 360° |
| 2026-04-20 23:43 | 34.75806 | -92.34766 | 9321 ft | 270 kts | 360° |
| 2026-04-20 23:44 | 34.77623 | -92.34724 | 10461 ft | 264 kts | 360° |
| 2026-04-20 23:44 | 34.79481 | -92.34675 | 11606 ft | 263 kts | 359° |
| 2026-04-20 23:44 | 34.81289 | -92.34611 | 12725 ft | 261 kts | 360° |
| 2026-04-20 23:44 | 34.83094 | -92.34539 | 13638 ft | 268 kts | 360° |
| 2026-04-20 23:45 | 34.85029 | -92.34390 | 14258 ft | 287 kts | 10° |
| 2026-04-20 23:45 | 34.86881 | -92.33345 | 14818 ft | 311 kts | 34° |
| 2026-04-20 23:45 | 34.88643 | -92.31535 | 14884 ft | 346 kts | 39° |
| 2026-04-20 23:45 | 34.90519 | -92.29556 | 15206 ft | 362 kts | 39° |
| 2026-04-20 23:46 | 34.92429 | -92.27520 | 15931 ft | 364 kts | 39° |
| 2026-04-20 23:46 | 34.94308 | -92.25465 | 16686 ft | 366 kts | 39° |
| 2026-04-20 23:46 | 34.96214 | -92.23383 | 17370 ft | 368 kts | 40° |
| 2026-04-20 23:46 | 34.98117 | -92.21290 | 18055 ft | 371 kts | 39° |
| 2026-04-20 23:47 | 35.00031 | -92.19163 | 18816 ft | 371 kts | 39° |
| 2026-04-20 23:47 | 35.01925 | -92.17049 | 19558 ft | 371 kts | 39° |
| 2026-04-20 23:47 | 35.03838 | -92.14904 | 20347 ft | 371 kts | 39° |
| 2026-04-20 23:47 | 35.05750 | -92.12755 | 21139 ft | 370 kts | 39° |
| 2026-04-20 23:48 | 35.07618 | -92.10632 | 21868 ft | 371 kts | 39° |
| 2026-04-20 23:48 | 35.09509 | -92.08463 | 22644 ft | 369 kts | 39° |
| 2026-04-20 23:48 | 35.11349 | -92.06323 | 23345 ft | 370 kts | 39° |
| 2026-04-20 23:48 | 35.13229 | -92.04314 | 24005 ft | 365 kts | 29° |
| 2026-04-20 23:49 | 35.15505 | -92.02986 | 24717 ft | 358 kts | 18° |
| 2026-04-20 23:49 | 35.17854 | -92.02068 | 25421 ft | 351 kts | 9° |
| 2026-04-20 23:49 | 35.20218 | -92.01372 | 26154 ft | 348 kts | 9° |
| 2026-04-20 23:49 | 35.22565 | -92.00700 | 26822 ft | 347 kts | 8° |
| 2026-04-20 23:50 | 35.24896 | -92.00040 | 27483 ft | 345 kts | 8° |
| 2026-04-20 23:50 | 35.27221 | -91.99390 | 28135 ft | 344 kts | 7° |
| 2026-04-20 23:50 | 35.29551 | -91.98748 | 28808 ft | 341 kts | 7° |
| 2026-04-20 23:50 | 35.31863 | -91.98113 | 29472 ft | 338 kts | 7° |
| 2026-04-20 23:51 | 35.34161 | -91.97482 | 30081 ft | 338 kts | 6° |
| 2026-04-20 23:51 | 35.36476 | -91.96847 | 30633 ft | 339 kts | 6° |
| 2026-04-20 23:51 | 35.38754 | -91.96222 | 31244 ft | 337 kts | 6° |
| 2026-04-20 23:51 | 35.41052 | -91.95590 | 31837 ft | 336 kts | 6° |
| 2026-04-20 23:52 | 35.43324 | -91.94966 | 32337 ft | 338 kts | 6° |
| 2026-04-20 23:52 | 35.45627 | -91.94332 | 32929 ft | 336 kts | 5° |
| 2026-04-20 23:52 | 35.47884 | -91.93711 | 33484 ft | 335 kts | 5° |
| 2026-04-20 23:52 | 35.50180 | -91.93079 | 33965 ft | 336 kts | 5° |
| 2026-04-20 23:53 | 35.52478 | -91.92445 | 34421 ft | 335 kts | 5° |
| 2026-04-20 23:53 | 35.54757 | -91.91818 | 34841 ft | 335 kts | 5° |
| 2026-04-20 23:53 | 35.57066 | -91.91181 | 35187 ft | 338 kts | 4° |
| 2026-04-20 23:53 | 35.59407 | -91.90538 | 35232 ft | 350 kts | 5° |
| 2026-04-20 23:54 | 35.61833 | -91.89868 | 35243 ft | 359 kts | 5° |
| 2026-04-20 23:54 | 35.64339 | -91.89176 | 35245 ft | 371 kts | 5° |
| 2026-04-20 23:54 | 35.66918 | -91.88464 | 35250 ft | 383 kts | 5° |
| 2026-04-20 23:54 | 35.69536 | -91.87739 | 35253 ft | 395 kts | 6° |
| 2026-04-20 23:55 | 35.72275 | -91.86980 | 35250 ft | 406 kts | 6° |
| 2026-04-20 23:55 | 35.75089 | -91.86199 | 35245 ft | 417 kts | 6° |
| 2026-04-20 23:55 | 35.77966 | -91.85401 | 35243 ft | 425 kts | 6° |
| 2026-04-20 23:56 | 35.83806 | -91.83778 | 35229 ft | 433 kts | 6° |
| 2026-04-20 23:56 | 35.89700 | -91.82138 | 35221 ft | 431 kts | 6° |
| 2026-04-20 23:57 | 35.95569 | -91.80504 | 35217 ft | 426 kts | 6° |
| 2026-04-20 23:57 | 36.01347 | -91.78893 | 35207 ft | 421 kts | 6° |
| 2026-04-20 23:58 | 36.07041 | -91.77302 | 35217 ft | 417 kts | 6° |
| 2026-04-20 23:58 | 36.12742 | -91.75708 | 35214 ft | 415 kts | 6° |
| 2026-04-20 23:59 | 36.18343 | -91.74139 | 35220 ft | 414 kts | 6° |
| 2026-04-20 23:59 | 36.23976 | -91.72559 | 35217 ft | 413 kts | 6° |
| 2026-04-21 00:00 | 36.29586 | -91.70940 | 35222 ft | 414 kts | 7° |
| 2026-04-21 00:00 | 36.35197 | -91.69250 | 35221 ft | 413 kts | 7° |
| 2026-04-21 00:01 | 36.40834 | -91.67566 | 35220 ft | 413 kts | 7° |
| 2026-04-21 00:01 | 36.46449 | -91.65888 | 35216 ft | 413 kts | 7° |
| 2026-04-21 00:02 | 36.52047 | -91.64213 | 35218 ft | 413 kts | 7° |
| 2026-04-21 00:02 | 36.57667 | -91.62528 | 35224 ft | 413 kts | 7° |
| 2026-04-21 00:03 | 36.63265 | -91.60847 | 35223 ft | 413 kts | 7° |
| 2026-04-21 00:03 | 36.68884 | -91.59158 | 35237 ft | 412 kts | 7° |
| 2026-04-21 00:04 | 36.74470 | -91.57477 | 35235 ft | 412 kts | 7° |
| 2026-04-21 00:04 | 36.80059 | -91.55791 | 35235 ft | 412 kts | 7° |
| 2026-04-21 00:05 | 36.85656 | -91.54101 | 35226 ft | 412 kts | 7° |
| 2026-04-21 00:05 | 36.91267 | -91.52404 | 35229 ft | 411 kts | 7° |
| 2026-04-21 00:06 | 36.96828 | -91.50719 | 35232 ft | 411 kts | 7° |
| 2026-04-21 00:06 | 37.02440 | -91.49017 | 35238 ft | 410 kts | 7° |
| 2026-04-21 00:07 | 37.07991 | -91.47330 | 35227 ft | 410 kts | 7° |
| 2026-04-21 00:07 | 37.13545 | -91.45641 | 35230 ft | 410 kts | 7° |
| 2026-04-21 00:08 | 37.19075 | -91.43956 | 35226 ft | 410 kts | 7° |
| 2026-04-21 00:08 | 37.24216 | -91.42387 | 35231 ft | 409 kts | 7° |
| 2026-04-21 00:09 | 37.30035 | -91.40608 | 35221 ft | 409 kts | 7° |
| 2026-04-21 00:09 | 37.35620 | -91.38899 | 35226 ft | 409 kts | 7° |
| 2026-04-21 00:10 | 37.41167 | -91.37198 | 35227 ft | 409 kts | 7° |
| 2026-04-21 00:10 | 37.46709 | -91.35496 | 35235 ft | 408 kts | 7° |
| 2026-04-21 00:11 | 37.52186 | -91.33812 | 35216 ft | 408 kts | 8° |
| 2026-04-21 00:11 | 37.57735 | -91.32102 | 35217 ft | 407 kts | 7° |
| 2026-04-21 00:12 | 37.63255 | -91.30400 | 35216 ft | 406 kts | 7° |
| 2026-04-21 00:12 | 37.68761 | -91.28699 | 35216 ft | 405 kts | 7° |
| 2026-04-21 00:13 | 37.74243 | -91.27003 | 35218 ft | 404 kts | 7° |
| 2026-04-21 00:13 | 37.79721 | -91.25305 | 35210 ft | 403 kts | 7° |
| 2026-04-21 00:14 | 37.85202 | -91.23605 | 35208 ft | 403 kts | 7° |
| 2026-04-21 00:14 | 37.90660 | -91.21908 | 35204 ft | 402 kts | 7° |
| 2026-04-21 00:15 | 37.96107 | -91.20213 | 35203 ft | 401 kts | 7° |
| 2026-04-21 00:15 | 38.01529 | -91.18522 | 35205 ft | 400 kts | 8° |
| 2026-04-21 00:16 | 38.06949 | -91.16830 | 35210 ft | 399 kts | 8° |
| 2026-04-21 00:16 | 38.12298 | -91.15157 | 35214 ft | 399 kts | 7° |
| 2026-04-21 00:17 | 38.17713 | -91.13461 | 35219 ft | 399 kts | 7° |
| 2026-04-21 00:17 | 38.23129 | -91.11762 | 35222 ft | 399 kts | 7° |
| 2026-04-21 00:18 | 38.28556 | -91.10057 | 35218 ft | 399 kts | 7° |
| 2026-04-21 00:18 | 38.33976 | -91.08352 | 35207 ft | 399 kts | 7° |
| 2026-04-21 00:19 | 38.39405 | -91.06641 | 35204 ft | 399 kts | 7° |
| 2026-04-21 00:19 | 38.44814 | -91.04934 | 35202 ft | 399 kts | 7° |
| 2026-04-21 00:20 | 38.50217 | -91.03226 | 35193 ft | 398 kts | 7° |
| 2026-04-21 00:20 | 38.55619 | -91.01515 | 35198 ft | 398 kts | 7° |
| 2026-04-21 00:21 | 38.61036 | -90.99798 | 35198 ft | 398 kts | 7° |
| 2026-04-21 00:21 | 38.66434 | -90.98083 | 35201 ft | 397 kts | 7° |
| 2026-04-21 00:22 | 38.71753 | -90.95896 | 35205 ft | 405 kts | 16° |
| 2026-04-21 00:22 | 38.77018 | -90.93036 | 35183 ft | 405 kts | 15° |
| 2026-04-21 00:23 | 38.82200 | -90.90231 | 35189 ft | 404 kts | 15° |
| 2026-04-21 00:23 | 38.87408 | -90.87407 | 35188 ft | 404 kts | 15° |
| 2026-04-21 00:24 | 38.92623 | -90.84576 | 35183 ft | 404 kts | 15° |
| 2026-04-21 00:24 | 38.97827 | -90.81745 | 35186 ft | 403 kts | 15° |
| 2026-04-21 00:25 | 39.03011 | -90.78921 | 35180 ft | 403 kts | 15° |
| 2026-04-21 00:25 | 39.08219 | -90.76080 | 35180 ft | 403 kts | 15° |
| 2026-04-21 00:26 | 39.13260 | -90.73325 | 35193 ft | 403 kts | 15° |
| 2026-04-21 00:26 | 39.18443 | -90.70489 | 35193 ft | 404 kts | 15° |
| 2026-04-21 00:27 | 39.23649 | -90.67635 | 35194 ft | 404 kts | 15° |
| 2026-04-21 00:27 | 39.28853 | -90.64777 | 35194 ft | 405 kts | 15° |
| 2026-04-21 00:28 | 39.34044 | -90.61923 | 35195 ft | 405 kts | 15° |
| 2026-04-21 00:28 | 39.39267 | -90.59045 | 35198 ft | 405 kts | 15° |
| 2026-04-21 00:29 | 39.44465 | -90.56148 | 35193 ft | 407 kts | 16° |
| 2026-04-21 00:29 | 39.49646 | -90.53119 | 35192 ft | 407 kts | 16° |
| 2026-04-21 00:30 | 39.54855 | -90.50079 | 35191 ft | 407 kts | 16° |
| 2026-04-21 00:30 | 39.60031 | -90.47052 | 35196 ft | 406 kts | 16° |
| 2026-04-21 00:31 | 39.65211 | -90.44019 | 35199 ft | 406 kts | 16° |
| 2026-04-21 00:31 | 39.70421 | -90.40962 | 35198 ft | 406 kts | 16° |
| 2026-04-21 00:32 | 39.75570 | -90.37937 | 35205 ft | 406 kts | 15° |
| 2026-04-21 00:32 | 39.80765 | -90.34879 | 35199 ft | 406 kts | 16° |
| 2026-04-21 00:33 | 39.85887 | -90.31860 | 35195 ft | 405 kts | 16° |
| 2026-04-21 00:33 | 39.91022 | -90.28828 | 35188 ft | 404 kts | 16° |
| 2026-04-21 00:34 | 39.96103 | -90.25554 | 35187 ft | 412 kts | 25° |
| 2026-04-21 00:34 | 40.00607 | -90.20694 | 35184 ft | 420 kts | 32° |
| 2026-04-21 00:35 | 40.05048 | -90.15686 | 35179 ft | 420 kts | 32° |
| 2026-04-21 00:35 | 40.09460 | -90.10723 | 35180 ft | 419 kts | 32° |
| 2026-04-21 00:36 | 40.13773 | -90.05865 | 35194 ft | 419 kts | 32° |
| 2026-04-21 00:36 | 40.18189 | -90.00883 | 35198 ft | 419 kts | 32° |
| 2026-04-21 00:37 | 40.22617 | -89.95877 | 35200 ft | 419 kts | 32° |
| 2026-04-21 00:37 | 40.27043 | -89.90865 | 35200 ft | 419 kts | 32° |
| 2026-04-21 00:38 | 40.31468 | -89.85845 | 35201 ft | 419 kts | 32° |
| 2026-04-21 00:38 | 40.35908 | -89.80799 | 35199 ft | 419 kts | 31° |
| 2026-04-21 00:39 | 40.40337 | -89.75757 | 35203 ft | 419 kts | 31° |
| 2026-04-21 00:39 | 40.44758 | -89.70715 | 35030 ft | 424 kts | 31° |
| 2026-04-21 00:39 | 40.47001 | -89.68153 | 34555 ft | 424 kts | 32° |
| 2026-04-21 00:40 | 40.49216 | -89.65617 | 34035 ft | 419 kts | 31° |
| 2026-04-21 00:40 | 40.51409 | -89.63108 | 33495 ft | 415 kts | 31° |
| 2026-04-21 00:40 | 40.53589 | -89.60612 | 32953 ft | 411 kts | 31° |
| 2026-04-21 00:40 | 40.55758 | -89.58125 | 32413 ft | 408 kts | 31° |
| 2026-04-21 00:41 | 40.57879 | -89.55693 | 31883 ft | 406 kts | 31° |
| 2026-04-21 00:41 | 40.60033 | -89.53218 | 31340 ft | 404 kts | 32° |
| 2026-04-21 00:41 | 40.62145 | -89.50791 | 30807 ft | 402 kts | 32° |
| 2026-04-21 00:41 | 40.64247 | -89.48373 | 30147 ft | 399 kts | 32° |
| 2026-04-21 00:42 | 40.66320 | -89.45985 | 29342 ft | 394 kts | 32° |
| 2026-04-21 00:42 | 40.68393 | -89.43597 | 28534 ft | 389 kts | 31° |
| 2026-04-21 00:42 | 40.70420 | -89.41259 | 27735 ft | 384 kts | 32° |
| 2026-04-21 00:42 | 40.72410 | -89.38961 | 26946 ft | 380 kts | 32° |
| 2026-04-21 00:43 | 40.74394 | -89.36656 | 26149 ft | 377 kts | 32° |
| 2026-04-21 00:43 | 40.76302 | -89.34380 | 25368 ft | 373 kts | 33° |
| 2026-04-21 00:43 | 40.78238 | -89.32173 | 24578 ft | 368 kts | 31° |
| 2026-04-21 00:43 | 40.80172 | -89.29969 | 23788 ft | 365 kts | 32° |
| 2026-04-21 00:44 | 40.82075 | -89.27776 | 22991 ft | 363 kts | 32° |
| 2026-04-21 00:44 | 40.83962 | -89.25594 | 22196 ft | 360 kts | 32° |
| 2026-04-21 00:44 | 40.85819 | -89.23440 | 21410 ft | 357 kts | 32° |
| 2026-04-21 00:45 | 40.89056 | -89.19681 | 20031 ft | 353 kts | 33° |
| 2026-04-21 00:45 | 40.90910 | -89.17526 | 19234 ft | 350 kts | 33° |
| 2026-04-21 00:45 | 40.92742 | -89.15393 | 18476 ft | 347 kts | 33° |
| 2026-04-21 00:45 | 40.94545 | -89.13295 | 17771 ft | 343 kts | 33° |
| 2026-04-21 00:46 | 40.96319 | -89.11227 | 17072 ft | 340 kts | 33° |
| 2026-04-21 00:46 | 40.98099 | -89.09149 | 16649 ft | 328 kts | 33° |
| 2026-04-21 00:46 | 40.99789 | -89.07178 | 16361 ft | 324 kts | 33° |
| 2026-04-21 00:46 | 41.01494 | -89.05189 | 16071 ft | 323 kts | 33° |
| 2026-04-21 00:47 | 41.03181 | -89.03217 | 15792 ft | 321 kts | 33° |
| 2026-04-21 00:47 | 41.04845 | -89.01271 | 15515 ft | 320 kts | 33° |
| 2026-04-21 00:47 | 41.06536 | -88.99294 | 15229 ft | 325 kts | 33° |
| 2026-04-21 00:47 | 41.08264 | -88.97270 | 15018 ft | 329 kts | 34° |
| 2026-04-21 00:48 | 41.09999 | -88.95238 | 14855 ft | 333 kts | 34° |
| 2026-04-21 00:48 | 41.11696 | -88.93246 | 14723 ft | 336 kts | 34° |
| 2026-04-21 00:48 | 41.13417 | -88.91191 | 14591 ft | 339 kts | 37° |
| 2026-04-21 00:48 | 41.15048 | -88.88963 | 14459 ft | 340 kts | 39° |
| 2026-04-21 00:49 | 41.16704 | -88.86672 | 14315 ft | 341 kts | 39° |
| 2026-04-21 00:49 | 41.18362 | -88.84365 | 14185 ft | 342 kts | 39° |
| 2026-04-21 00:49 | 41.20016 | -88.82059 | 14039 ft | 343 kts | 39° |
| 2026-04-21 00:49 | 41.21682 | -88.79841 | 13994 ft | 337 kts | 35° |
| 2026-04-21 00:50 | 41.23437 | -88.77734 | 13814 ft | 335 kts | 35° |
| 2026-04-21 00:50 | 41.25140 | -88.75670 | 13313 ft | 329 kts | 35° |
| 2026-04-21 00:50 | 41.26832 | -88.73617 | 12821 ft | 327 kts | 35° |
| 2026-04-21 00:50 | 41.28511 | -88.71577 | 12329 ft | 326 kts | 35° |
| 2026-04-21 00:51 | 41.30176 | -88.69553 | 11837 ft | 325 kts | 35° |
| 2026-04-21 00:51 | 41.31861 | -88.67503 | 11448 ft | 321 kts | 35° |
| 2026-04-21 00:51 | 41.33514 | -88.65488 | 11085 ft | 317 kts | 35° |
| 2026-04-21 00:51 | 41.35113 | -88.63536 | 10990 ft | 305 kts | 35° |
| 2026-04-21 00:52 | 41.36667 | -88.61639 | 10985 ft | 292 kts | 34° |
| 2026-04-21 00:52 | 41.38141 | -88.59879 | 10984 ft | 280 kts | 33° |
| 2026-04-21 00:52 | 41.39576 | -88.58176 | 10986 ft | 270 kts | 33° |
| 2026-04-21 00:52 | 41.41021 | -88.56470 | 11002 ft | 283 kts | 33° |
| 2026-04-21 00:53 | 41.42545 | -88.54666 | 11002 ft | 299 kts | 34° |
| 2026-04-21 00:53 | 41.44139 | -88.52772 | 10997 ft | 312 kts | 34° |
| 2026-04-21 00:53 | 41.45793 | -88.50806 | 11000 ft | 323 kts | 34° |
| 2026-04-21 00:53 | 41.47509 | -88.48762 | 10990 ft | 332 kts | 35° |
| 2026-04-21 00:54 | 41.49242 | -88.46697 | 10967 ft | 333 kts | 34° |
| 2026-04-21 00:54 | 41.50968 | -88.44638 | 10978 ft | 331 kts | 34° |
| 2026-04-21 00:54 | 41.52693 | -88.42580 | 11001 ft | 331 kts | 34° |
| 2026-04-21 00:54 | 41.54416 | -88.40526 | 11003 ft | 332 kts | 34° |
| 2026-04-21 00:55 | 41.56146 | -88.38459 | 11000 ft | 333 kts | 34° |
| 2026-04-21 00:55 | 41.57883 | -88.36383 | 11003 ft | 333 kts | 34° |
| 2026-04-21 00:55 | 41.59566 | -88.34370 | 11001 ft | 333 kts | 35° |
| 2026-04-21 00:55 | 41.61263 | -88.32339 | 11001 ft | 335 kts | 35° |
| 2026-04-21 00:56 | 41.63016 | -88.30251 | 11000 ft | 338 kts | 35° |
| 2026-04-21 00:56 | 41.64778 | -88.28155 | 10996 ft | 339 kts | 35° |
| 2026-04-21 00:56 | 41.66555 | -88.26041 | 10998 ft | 341 kts | 35° |
| 2026-04-21 00:56 | 41.68331 | -88.23927 | 10998 ft | 342 kts | 35° |
| 2026-04-21 00:57 | 41.70087 | -88.21835 | 10998 ft | 343 kts | 35° |
| 2026-04-21 00:57 | 41.71837 | -88.19747 | 10997 ft | 344 kts | 35° |
| 2026-04-21 00:57 | 41.73608 | -88.17634 | 10999 ft | 344 kts | 35° |
| 2026-04-21 00:57 | 41.75405 | -88.15488 | 10999 ft | 344 kts | 35° |
| 2026-04-21 00:58 | 41.77160 | -88.13390 | 10997 ft | 344 kts | 35° |
| 2026-04-21 00:58 | 41.78929 | -88.11274 | 10997 ft | 344 kts | 35° |
| 2026-04-21 00:58 | 41.80714 | -88.09130 | 10996 ft | 345 kts | 36° |
| 2026-04-21 00:58 | 41.82430 | -88.06844 | 10999 ft | 345 kts | 38° |
| 2026-04-21 00:59 | 41.84048 | -88.04694 | 10989 ft | 320 kts | 37° |
| 2026-04-21 00:59 | 41.85580 | -88.02661 | 10986 ft | 298 kts | 37° |
| 2026-04-21 00:59 | 41.87013 | -88.00761 | 10975 ft | 286 kts | 37° |
| 2026-04-21 00:59 | 41.88200 | -87.98584 | 10544 ft | 304 kts | 60° |
| 2026-04-21 01:00 | 41.88604 | -87.95875 | 10083 ft | 318 kts | 87° |
| 2026-04-21 01:00 | 41.88471 | -87.93016 | 9623 ft | 318 kts | 87° |
| 2026-04-21 01:00 | 41.88451 | -87.90296 | 9167 ft | 317 kts | 86° |
| 2026-04-21 01:00 | 41.88444 | -87.87492 | 8696 ft | 316 kts | 87° |
| 2026-04-21 01:01 | 41.88440 | -87.84666 | 8216 ft | 315 kts | 87° |
| 2026-04-21 01:01 | 41.88435 | -87.81941 | 7904 ft | 300 kts | 87° |
| 2026-04-21 01:01 | 41.88432 | -87.79395 | 7720 ft | 291 kts | 87° |
| 2026-04-21 01:01 | 41.88430 | -87.76746 | 7489 ft | 284 kts | 87° |
| 2026-04-21 01:02 | 41.88427 | -87.74196 | 7254 ft | 278 kts | 87° |
| 2026-04-21 01:02 | 41.88425 | -87.71838 | 6913 ft | 278 kts | 88° |
| 2026-04-21 01:02 | 41.88421 | -87.69239 | 6537 ft | 278 kts | 88° |
| 2026-04-21 01:02 | 41.88417 | -87.66664 | 6166 ft | 278 kts | 89° |
| 2026-04-21 01:03 | 41.88412 | -87.64082 | 5845 ft | 275 kts | 89° |
| 2026-04-21 01:03 | 41.88407 | -87.61593 | 5552 ft | 272 kts | 90° |
| 2026-04-21 01:03 | 41.88401 | -87.59074 | 5249 ft | 269 kts | 90° |
| 2026-04-21 01:03 | 41.88394 | -87.56587 | 5028 ft | 263 kts | 90° |
| 2026-04-21 01:04 | 41.88387 | -87.54190 | 4996 ft | 249 kts | 90° |
| 2026-04-21 01:04 | 41.88374 | -87.51910 | 5004 ft | 244 kts | 91° |
| 2026-04-21 01:04 | 41.88364 | -87.49644 | 5002 ft | 240 kts | 91° |
| 2026-04-21 01:04 | 41.88356 | -87.47417 | 5004 ft | 236 kts | 91° |
| 2026-04-21 01:05 | 41.88350 | -87.45243 | 5011 ft | 232 kts | 90° |
| 2026-04-21 01:05 | 41.88343 | -87.43072 | 5018 ft | 233 kts | 89° |
| 2026-04-21 01:05 | 41.88750 | -87.40982 | 5030 ft | 233 kts | 54° |
| 2026-04-21 01:05 | 41.89965 | -87.39605 | 5029 ft | 229 kts | 17° |
| 2026-04-21 01:06 | 41.91489 | -87.39466 | 5016 ft | 221 kts | 339° |
| 2026-04-21 01:06 | 41.92739 | -87.40562 | 5026 ft | 215 kts | 307° |
| 2026-04-21 01:06 | 41.93679 | -87.42152 | 5005 ft | 220 kts | 304° |
| 2026-04-21 01:06 | 41.94620 | -87.43775 | 4989 ft | 222 kts | 304° |
| 2026-04-21 01:07 | 41.95520 | -87.45468 | 4984 ft | 221 kts | 297° |
| 2026-04-21 01:07 | 41.96250 | -87.47282 | 4981 ft | 220 kts | 293° |
| 2026-04-21 01:07 | 41.96529 | -87.49264 | 4994 ft | 215 kts | 267° |
| 2026-04-21 01:07 | 41.96489 | -87.51266 | 4996 ft | 215 kts | 268° |
| 2026-04-21 01:08 | 41.96476 | -87.53302 | 4999 ft | 217 kts | 269° |
| 2026-04-21 01:08 | 41.96473 | -87.55330 | 5000 ft | 218 kts | 269° |
| 2026-04-21 01:08 | 41.96475 | -87.57373 | 5005 ft | 219 kts | 269° |
| 2026-04-21 01:08 | 41.96481 | -87.59412 | 4986 ft | 220 kts | 269° |
| 2026-04-21 01:09 | 41.96488 | -87.61485 | 4740 ft | 222 kts | 269° |
| 2026-04-21 01:09 | 41.96495 | -87.63517 | 4473 ft | 224 kts | 268° |
| 2026-04-21 01:09 | 41.96503 | -87.65624 | 4177 ft | 222 kts | 268° |
| 2026-04-21 01:09 | 41.96512 | -87.67573 | 3877 ft | 198 kts | 266° |
| 2026-04-21 01:10 | 41.96519 | -87.69299 | 3642 ft | 182 kts | 266° |
| 2026-04-21 01:10 | 41.96524 | -87.70881 | 3397 ft | 171 kts | 265° |
| 2026-04-21 01:10 | 41.96528 | -87.72440 | 3167 ft | 168 kts | 265° |
| 2026-04-21 01:10 | 41.96532 | -87.74023 | 2937 ft | 170 kts | 265° |
| 2026-04-21 01:11 | 41.96537 | -87.75610 | 2703 ft | 169 kts | 264° |
| 2026-04-21 01:11 | 41.96544 | -87.77048 | 2492 ft | 148 kts | 263° |
| 2026-04-21 01:11 | 41.96572 | -87.78348 | 2261 ft | 137 kts | 266° |
| 2026-04-21 01:11 | 41.96607 | -87.79727 | 2188 ft | 151 kts | 261° |
| 2026-04-21 01:12 | 41.96589 | -87.81054 | 2119 ft | 152 kts | 261° |
| 2026-04-21 01:12 | 41.96596 | -87.82330 | 1954 ft | 151 kts | 263° |
| 2026-04-21 01:12 | 41.96582 | -87.83601 | 1781 ft | 133 kts | 259° |
| 2026-04-21 01:12 | 41.96569 | -87.84744 | 1474 ft | 124 kts | 261° |
| 2026-04-21 01:13 | 41.96581 | -87.85770 | 1311 ft | 130 kts | 263° |
| 2026-04-21 01:13 | 41.96572 | -87.86816 | 1161 ft | 135 kts | 264° |
| 2026-04-21 01:13 | 41.96575 | -87.87929 | 958 ft | 139 kts | 264° |
| 2026-04-21 01:13 | 41.96574 | -87.89169 | 739 ft | 133 kts | 265° |
| 2026-04-21 01:14 | 41.96567 | -87.90559 | 672 ft | 97 kts | 268° |
| 2026-04-21 01:14 | 41.96573 | -87.91235 | 672 ft | 55 kts | 271° |
| 2026-04-21 01:14 | 41.96664 | -87.91865 | 672 ft | 14 kts | 319° |
| 2026-04-21 01:15 | 41.96721 | -87.91858 | 672 ft | 10 kts | 50° |
| 2026-04-21 01:15 | 41.96735 | -87.91762 | 672 ft | 13 kts | 92° |
| 2026-04-21 01:15 | 41.96735 | -87.91618 | 672 ft | 16 kts | 90° |
| 2026-04-21 01:15 | 41.96735 | -87.91446 | 672 ft | 20 kts | 89° |
| 2026-04-21 01:16 | 41.96735 | -87.91245 | 672 ft | 21 kts | 89° |
| 2026-04-21 01:16 | 41.96737 | -87.91054 | 672 ft | 22 kts | 91° |
| 2026-04-21 01:16 | 41.96735 | -87.90836 | 672 ft | 25 kts | 90° |
| 2026-04-21 01:16 | 41.96736 | -87.90601 | 672 ft | 25 kts | 90° |
| 2026-04-21 01:17 | 41.96735 | -87.90353 | 672 ft | 27 kts | 86° |
| 2026-04-21 01:17 | 41.96736 | -87.90126 | 672 ft | 25 kts | 90° |
| 2026-04-21 01:17 | 41.96737 | -87.89917 | 672 ft | 21 kts | 90° |
| 2026-04-21 01:17 | 41.96738 | -87.89702 | 672 ft | 24 kts | 86° |
| 2026-04-21 01:18 | 41.96741 | -87.89490 | 672 ft | 17 kts | 80° |
| 2026-04-21 01:18 | 41.96845 | -87.89437 | 672 ft | 20 kts | 359° |
| 2026-04-21 01:18 | 41.96977 | -87.89438 | 672 ft | 13 kts | 358° |
| 2026-04-21 01:18 | 41.97060 | -87.89468 | 672 ft | 13 kts | 344° |
| 2026-04-21 01:19 | 41.97105 | -87.89573 | 672 ft | 15 kts | 293° |
| 2026-04-21 01:19 | 41.97181 | -87.89661 | 672 ft | 14 kts | 324° |
| 2026-04-21 01:19 | 41.97252 | -87.89762 | 672 ft | 15 kts | 268° |
| 2026-04-21 01:19 | 41.97209 | -87.89893 | 672 ft | 12 kts | 253° |
| 2026-04-21 01:20 | 41.97203 | -87.90024 | 672 ft | 15 kts | 269° |
| 2026-04-21 01:20 | 41.97203 | -87.90168 | 672 ft | 17 kts | 269° |
| 2026-04-21 01:20 | 41.97203 | -87.90327 | 672 ft | 16 kts | 270° |
| 2026-04-21 01:20 | 41.97221 | -87.90444 | 672 ft | 10 kts | 333° |
| 2026-04-21 01:21 | 41.97306 | -87.90450 | 672 ft | 14 kts | 0° |
| 2026-04-21 01:21 | 41.97415 | -87.90454 | 672 ft | 17 kts | 354° |
| 2026-04-21 01:21 | 41.97486 | -87.90482 | 672 ft | 5 kts | 334° |
| 2026-04-21 01:21 | 41.97508 | -87.90528 | 672 ft | 4 kts | 270° |
| 2026-04-21 01:22 | 41.97508 | -87.90547 | 672 ft | 2 kts | 269° |
| 2026-04-21 01:22 | 41.97508 | -87.90557 | 672 ft | 0 kts | 270° |